createdAt,value
2022-09-03T00:00:01.479Z,1.10
2022-09-03T00:05:21.653Z,1.15
2022-09-03T00:10:30.163Z,1.30
2022-09-03T00:15:34.552Z,1.02
2022-09-03T00:20:44.010Z,1.10
2022-09-03T00:26:01.550Z,1.10
2022-09-03T00:31:12.803Z,0.98
2022-09-03T00:36:25.123Z,1.00
2022-09-03T00:41:59.436Z,1.10
2022-09-03T00:47:24.819Z,0.93
2022-09-03T00:52:39.503Z,0.90
2022-09-03T00:57:50.436Z,1.10
2022-09-03T01:03:12.529Z,1.15
2022-09-03T01:08:26.588Z,1.20
2022-09-03T01:13:42.208Z,1.00
2022-09-03T01:19:17.155Z,1.20
2022-09-03T01:24:41.524Z,1.10
2022-09-03T01:29:57.413Z,1.27
2022-09-03T01:35:19.315Z,1.13
2022-09-03T01:40:57.970Z,1.27
2022-09-03T01:46:05.376Z,1.17
2022-09-03T01:51:13.032Z,1.25
2022-09-03T01:56:36.101Z,1.30
2022-09-03T02:01:46.754Z,1.40
2022-09-03T02:06:48.910Z,1.10
2022-09-03T02:11:59.515Z,1.10
2022-09-03T02:17:02.539Z,1.45
2022-09-03T02:22:05.247Z,1.13
2022-09-03T02:27:06.925Z,1.30
2022-09-03T02:32:08.581Z,1.77
2022-09-03T02:37:18.435Z,1.33
2022-09-03T02:42:20.608Z,1.20
2022-09-03T02:47:28.958Z,1.23
2022-09-03T02:52:30.555Z,1.20
2022-09-03T02:57:32.174Z,1.13
2022-09-03T03:02:33.881Z,1.20
2022-09-03T03:07:58.658Z,1.10
2022-09-03T03:13:00.792Z,1.20
2022-09-03T03:18:02.567Z,1.38
2022-09-03T03:23:05.601Z,1.20
2022-09-03T03:28:07.954Z,1.20
2022-09-03T03:33:10.369Z,1.25
2022-09-03T03:38:12.055Z,1.38
2022-09-03T03:43:13.953Z,1.20
2022-09-03T03:48:15.661Z,1.48
2022-09-03T03:53:17.863Z,1.20
2022-09-03T03:58:19.494Z,1.40
2022-09-03T04:03:21.302Z,1.58
2022-09-03T04:08:23.887Z,1.30
2022-09-03T04:13:29.452Z,1.30
2022-09-03T04:18:32.559Z,1.23
2022-09-03T04:23:36.120Z,1.30
2022-09-03T04:28:38.408Z,1.50
2022-09-03T04:33:41.083Z,1.50
2022-09-03T04:38:44.891Z,1.58
2022-09-03T04:43:51.403Z,1.30
2022-09-03T04:48:54.982Z,1.40
2022-09-03T04:53:59.114Z,1.48
2022-09-03T04:59:07.197Z,1.40
2022-09-03T05:04:09.253Z,1.45
2022-09-03T05:09:11.119Z,1.33
2022-09-03T05:14:12.802Z,1.73
2022-09-03T05:19:14.767Z,1.30
2022-09-03T05:24:16.681Z,1.58
2022-09-03T05:29:19.988Z,1.42
2022-09-03T05:34:22.138Z,1.20
2022-09-03T05:39:23.740Z,1.73
2022-09-03T05:44:25.452Z,1.33
2022-09-03T05:49:27.043Z,1.52
2022-09-03T05:54:28.683Z,1.13
2022-09-03T05:59:30.381Z,1.40
2022-09-03T06:04:32.548Z,1.23
2022-09-03T06:09:35.049Z,1.48
2022-09-03T06:14:36.740Z,1.10
2022-09-03T06:19:39.179Z,1.30
2022-09-03T06:24:40.843Z,1.00
2022-09-03T06:29:42.687Z,1.17
2022-09-03T06:34:44.321Z,1.35
2022-09-03T06:39:46.556Z,0.80
2022-09-03T06:44:49.019Z,1.00
2022-09-03T06:49:50.620Z,1.00
2022-09-03T06:54:52.478Z,1.48
2022-09-03T06:59:55.450Z,1.08
2022-09-03T07:04:57.256Z,1.00
2022-09-03T07:09:58.877Z,1.00
2022-09-03T07:15:00.467Z,1.17
2022-09-03T07:20:02.412Z,0.80
2022-09-03T07:25:04.383Z,1.00
2022-09-03T07:30:09.734Z,1.08
2022-09-03T07:35:11.393Z,1.00
2022-09-03T07:40:14.021Z,0.80
2022-09-03T07:45:15.698Z,0.68
2022-09-03T07:50:17.500Z,0.90
2022-09-03T07:55:19.115Z,0.80
2022-09-03T08:00:20.848Z,1.10
2022-09-03T08:05:22.454Z,0.85
2022-09-03T08:10:24.724Z,0.80
2022-09-03T08:15:26.703Z,1.30
2022-09-03T08:20:28.359Z,1.00
2022-09-03T08:25:31.903Z,0.80
2022-09-03T08:30:34.884Z,3.33
2022-09-03T08:35:39.476Z,1.00
2022-09-03T08:40:42.761Z,7.53
2022-09-03T08:45:45.501Z,2.25
2022-09-03T08:50:52.732Z,0.88
2022-09-03T08:56:01.714Z,1.60
2022-09-03T09:01:34.319Z,1.08
2022-09-03T09:06:51.245Z,0.75
2022-09-03T09:11:55.588Z,1.00
2022-09-03T12:01:57.269Z,0.77
2022-09-03T12:07:40.009Z,0.90
2022-09-03T12:13:33.282Z,1.20
2022-09-03T12:18:36.665Z,1.00
2022-09-03T12:23:45.015Z,1.08
2022-09-03T12:28:49.835Z,0.90
2022-09-03T12:34:00.848Z,1.10
2022-09-03T12:39:13.515Z,0.80
2022-09-03T12:44:15.286Z,0.95
2022-09-03T12:49:32.382Z,1.02
2022-09-03T12:54:40.685Z,0.73
2022-09-03T12:59:42.490Z,0.90
2022-09-03T13:04:45.793Z,0.80
2022-09-03T13:09:47.862Z,0.80
2022-09-03T13:14:52.655Z,0.95
2022-09-03T13:20:16.477Z,0.68
2022-09-03T13:25:43.202Z,1.00
2022-09-03T13:31:08.666Z,0.90
2022-09-03T13:36:19.085Z,0.87
2022-09-03T13:41:54.272Z,1.13
2022-09-03T13:47:01.462Z,0.73
2022-09-03T13:52:11.389Z,0.70
2022-09-03T13:57:38.116Z,0.80
2022-09-03T14:03:10.473Z,1.20
2022-09-03T14:08:17.851Z,0.90
2022-09-03T14:13:30.738Z,1.00
2022-09-03T14:18:59.630Z,0.77
2022-09-03T14:24:10.527Z,0.70
2022-09-03T14:29:12.099Z,0.70
2022-09-03T14:34:54.427Z,0.75
2022-09-03T14:39:58.438Z,0.60
2022-09-03T14:45:29.930Z,0.73
2022-09-03T14:50:56.647Z,0.82
2022-09-03T14:56:10.444Z,0.70
2022-09-03T15:01:17.342Z,0.60
2022-09-03T15:06:52.490Z,0.70
2022-09-03T15:12:03.127Z,0.80
2022-09-03T15:17:14.611Z,0.60
2022-09-03T15:22:37.966Z,0.60
2022-09-03T15:28:00.711Z,1.05
2022-09-03T15:33:14.022Z,0.70
2022-09-03T15:38:34.128Z,1.00
2022-09-03T15:43:35.865Z,0.90
2022-09-03T15:49:08.985Z,0.90
2022-09-03T15:54:27.139Z,0.90
2022-09-03T15:59:52.340Z,0.60
2022-09-03T16:05:16.380Z,0.70
2022-09-03T16:10:24.797Z,0.80
2022-09-03T16:15:34.909Z,0.60
2022-09-03T16:20:43.252Z,0.80
2022-09-03T16:25:53.561Z,0.98
2022-09-03T16:31:27.170Z,1.15
2022-09-03T16:36:56.543Z,1.25
2022-09-03T16:42:17.148Z,0.80
2022-09-03T16:47:26.584Z,0.90
2022-09-03T16:52:46.042Z,1.08
2022-09-03T16:58:18.049Z,1.15
2022-09-03T17:03:29.202Z,1.20
2022-09-03T17:08:46.222Z,1.45
2022-09-03T17:13:59.990Z,1.00
2022-09-03T17:19:23.300Z,1.10
2022-09-03T17:24:51.261Z,1.10
2022-09-03T17:30:03.138Z,1.00
2022-09-03T17:35:04.710Z,1.10
2022-09-03T17:40:19.884Z,1.40
2022-09-03T17:45:41.301Z,1.30
2022-09-03T17:51:12.460Z,1.30
2022-09-03T17:56:30.872Z,1.38
2022-09-03T18:01:37.926Z,1.33
2022-09-03T18:07:06.069Z,1.60
2022-09-03T18:12:27.956Z,1.90
2022-09-03T18:17:44.028Z,1.92
2022-09-03T18:23:28.418Z,2.28
2022-09-03T18:29:01.497Z,2.53
2022-09-03T18:34:23.018Z,2.00
2022-09-03T18:39:46.897Z,2.55
2022-09-03T18:45:23.743Z,1.85
2022-09-03T18:51:08.925Z,2.40
2022-09-03T18:56:51.038Z,2.03
2022-09-03T19:02:13.140Z,2.28
2022-09-03T19:08:00.127Z,2.83
2022-09-03T19:13:40.110Z,3.00
2022-09-03T19:19:19.046Z,2.83
2022-09-03T19:24:44.620Z,2.90
2022-09-03T19:30:20.126Z,3.40
2022-09-03T19:35:50.955Z,4.43
2022-09-03T19:41:17.443Z,3.38
2022-09-03T19:46:50.341Z,3.95
2022-09-03T19:52:25.685Z,3.85
2022-09-03T19:57:49.189Z,3.70
2022-09-03T20:03:09.460Z,3.70
2022-09-03T20:08:34.923Z,3.88
2022-09-03T20:13:58.086Z,4.28
2022-09-03T20:19:20.547Z,3.60
2022-09-03T20:24:28.664Z,4.13
2022-09-03T20:29:51.780Z,3.75
2022-09-03T20:35:32.445Z,3.78
2022-09-03T20:41:03.512Z,4.65
2022-09-03T20:46:18.474Z,4.10
2022-09-03T20:51:27.354Z,4.45
2022-09-03T20:56:56.966Z,4.60
2022-09-03T21:02:22.060Z,4.20
2022-09-03T21:07:43.844Z,4.78
2022-09-03T21:12:51.442Z,4.72
2022-09-03T21:18:04.152Z,4.68
2022-09-03T21:23:20.096Z,5.25
2022-09-03T21:28:31.397Z,4.97
2022-09-03T21:33:38.091Z,4.68
2022-09-03T21:43:54.945Z,4.72
2022-09-03T21:49:01.223Z,4.78
2022-09-03T21:54:12.391Z,6.13
2022-09-03T21:59:48.760Z,5.10
2022-09-03T22:10:03.457Z,4.38
2022-09-03T22:15:10.228Z,5.05
2022-09-03T22:25:24.834Z,5.30
2022-09-03T22:30:34.992Z,4.43
2022-09-03T22:36:00.264Z,4.00
2022-09-03T22:41:25.997Z,3.90
2022-09-03T22:46:41.921Z,4.00
2022-09-03T22:52:00.852Z,5.38
2022-09-03T22:57:03.817Z,4.15
2022-09-03T23:02:18.322Z,4.57
2022-09-03T23:07:31.556Z,4.55
2022-09-03T23:12:48.042Z,5.30
2022-09-03T23:18:06.674Z,4.00
2022-09-03T23:23:14.607Z,4.10
2022-09-03T23:28:19.215Z,4.35
2022-09-03T23:33:20.885Z,4.50
2022-09-03T23:39:16.911Z,4.25
2022-09-03T23:44:27.633Z,3.63
2022-09-03T23:49:43.700Z,4.00
2022-09-03T23:54:57.733Z,3.78
